createdAt,value
2022-10-17T00:00:27.359Z,17.17
2022-10-17T00:02:30.788Z,17.16
2022-10-17T00:06:45.091Z,17.21
2022-10-17T00:08:48.515Z,17.32
2022-10-17T00:10:59.075Z,17.39
2022-10-17T00:13:02.114Z,17.46
2022-10-17T00:15:08.490Z,17.48
2022-10-17T00:17:11.560Z,17.44
2022-10-17T00:19:14.703Z,17.43
2022-10-17T00:21:18.180Z,17.44
2022-10-17T00:23:21.309Z,17.42
2022-10-17T00:25:24.488Z,17.46
2022-10-17T00:27:27.744Z,17.47
2022-10-17T00:29:31.115Z,17.42
2022-10-17T00:31:35.840Z,17.38
2022-10-17T00:33:39.235Z,17.39
2022-10-17T00:35:42.299Z,17.36
2022-10-17T00:37:46.580Z,17.31
2022-10-17T00:39:49.603Z,17.29
2022-10-17T00:41:53.678Z,17.29
2022-10-17T00:43:58.098Z,17.35
2022-10-17T00:46:01.106Z,17.36
2022-10-17T00:48:08.424Z,17.39
2022-10-17T00:50:12.709Z,17.40
2022-10-17T00:52:17.794Z,17.34
2022-10-17T00:54:24.170Z,17.37
2022-10-17T00:56:28.789Z,17.36
2022-10-17T00:58:32.188Z,17.38
2022-10-17T01:00:36.896Z,17.40
2022-10-17T01:02:43.374Z,17.44
2022-10-17T01:04:49.039Z,17.48
2022-10-17T01:06:52.070Z,17.52
2022-10-17T01:09:12.514Z,17.50
2022-10-17T01:11:44.716Z,17.40
2022-10-17T01:14:47.024Z,17.34
2022-10-17T01:16:53.483Z,17.30
2022-10-17T01:19:02.089Z,17.26
2022-10-17T01:21:47.797Z,17.21
2022-10-17T01:24:40.569Z,17.19
2022-10-17T01:26:56.200Z,17.21
2022-10-17T01:29:07.699Z,17.20
2022-10-17T01:31:23.744Z,17.18
2022-10-17T01:33:32.307Z,17.15
2022-10-17T01:35:38.850Z,17.21
2022-10-17T01:37:45.977Z,17.22
2022-10-17T01:39:51.872Z,17.23
2022-10-17T01:41:59.805Z,17.15
2022-10-17T01:44:06.512Z,17.15
2022-10-17T01:46:14.597Z,17.22
2022-10-17T01:48:21.653Z,17.21
2022-10-17T01:50:27.488Z,17.17
2022-10-17T01:52:33.582Z,17.12
2022-10-17T01:54:40.950Z,17.09
2022-10-17T01:56:45.577Z,17.12
2022-10-17T01:58:51.823Z,17.19
2022-10-17T02:00:56.708Z,17.22
2022-10-17T02:03:01.383Z,17.19
2022-10-17T02:05:06.541Z,17.19
2022-10-17T02:07:10.399Z,17.18
2022-10-17T02:09:21.044Z,17.17
2022-10-17T02:11:25.866Z,17.12
2022-10-17T02:13:36.018Z,17.05
2022-10-17T02:16:00.403Z,17.03
2022-10-17T02:18:10.300Z,17.03
2022-10-17T02:20:19.827Z,17.00
2022-10-17T02:22:32.146Z,17.06
2022-10-17T02:24:42.181Z,17.04
2022-10-17T02:26:47.191Z,17.07
2022-10-17T02:28:56.968Z,17.01
2022-10-17T02:31:03.432Z,17.00
2022-10-17T02:33:08.180Z,17.03
2022-10-17T02:35:14.661Z,17.06
2022-10-17T02:37:20.952Z,17.04
2022-10-17T02:39:26.336Z,17.00
2022-10-17T02:41:31.251Z,16.97
2022-10-17T02:43:35.287Z,16.98
2022-10-17T02:45:38.793Z,16.96
2022-10-17T02:47:47.175Z,16.96
2022-10-17T02:49:52.341Z,17.00
2022-10-17T02:52:01.072Z,17.00
2022-10-17T02:54:10.714Z,17.04
2022-10-17T02:56:18.304Z,17.04
2022-10-17T02:58:26.468Z,17.05
2022-10-17T03:00:29.865Z,17.04
2022-10-17T03:02:39.200Z,17.05
2022-10-17T03:04:44.290Z,17.04
2022-10-17T03:06:48.653Z,17.04
2022-10-17T03:08:51.660Z,17.05
2022-10-17T03:10:56.103Z,17.05
2022-10-17T03:12:59.601Z,17.11
2022-10-17T03:15:04.074Z,17.08
2022-10-17T03:17:07.794Z,17.10
2022-10-17T03:19:11.472Z,17.17
2022-10-17T03:21:14.596Z,17.15
2022-10-17T03:23:18.263Z,17.18
2022-10-17T03:25:22.422Z,16.88
2022-10-17T03:27:27.485Z,17.16
2022-10-17T03:29:31.145Z,17.15
2022-10-17T03:31:34.594Z,17.11
2022-10-17T03:33:38.626Z,17.12
2022-10-17T03:35:42.221Z,17.11
2022-10-17T03:37:46.204Z,17.18
2022-10-17T03:39:49.378Z,17.17
2022-10-17T03:41:52.463Z,17.18
2022-10-17T03:43:57.264Z,17.18
2022-10-17T03:46:01.527Z,17.20
2022-10-17T03:48:06.037Z,17.20
2022-10-17T03:50:09.515Z,17.19
2022-10-17T03:52:14.748Z,17.21
2022-10-17T03:54:18.251Z,17.23
2022-10-17T03:56:22.507Z,17.22
2022-10-17T03:58:33.924Z,17.26
2022-10-17T04:00:38.876Z,17.24
2022-10-17T04:02:42.252Z,17.20
2022-10-17T04:04:50.919Z,17.24
2022-10-17T04:06:54.681Z,17.26
2022-10-17T04:08:57.952Z,17.24
2022-10-17T04:11:06.962Z,17.28
2022-10-17T04:13:10.257Z,17.31
2022-10-17T04:15:13.456Z,17.29
2022-10-17T04:17:18.164Z,17.29
2022-10-17T04:19:22.182Z,17.29
2022-10-17T04:21:27.655Z,17.29
2022-10-17T04:23:31.687Z,17.27
2022-10-17T04:25:40.881Z,17.31
2022-10-17T04:27:44.136Z,17.24
2022-10-17T04:29:47.494Z,17.23
2022-10-17T04:31:55.898Z,17.22
2022-10-17T04:34:10.310Z,17.21
2022-10-17T04:36:14.674Z,17.27
2022-10-17T04:38:19.293Z,17.24
2022-10-17T04:40:25.307Z,17.25
2022-10-17T04:42:30.516Z,17.30
2022-10-17T04:44:35.558Z,17.25
2022-10-17T04:46:39.265Z,17.27
2022-10-17T04:48:43.093Z,17.22
2022-10-17T04:50:55.640Z,17.24
2022-10-17T04:53:09.066Z,17.24
2022-10-17T04:55:12.321Z,17.25
2022-10-17T04:57:17.109Z,17.24
2022-10-17T04:59:29.821Z,17.24
2022-10-17T05:01:47.208Z,17.22
2022-10-17T05:03:50.549Z,17.23
2022-10-17T05:05:54.997Z,17.21
2022-10-17T05:07:59.276Z,17.22
2022-10-17T05:10:06.948Z,17.21
2022-10-17T05:12:10.487Z,17.21
2022-10-17T05:14:16.807Z,17.22
2022-10-17T05:16:23.574Z,17.17
2022-10-17T05:18:26.699Z,17.15
2022-10-17T05:20:30.210Z,17.15
2022-10-17T05:22:38.248Z,17.14
2022-10-17T05:24:44.497Z,17.17
2022-10-17T05:26:48.024Z,17.15
2022-10-17T05:28:53.141Z,17.13
2022-10-17T05:30:58.577Z,17.13
2022-10-17T05:33:01.595Z,17.17
2022-10-17T05:35:05.531Z,17.16
2022-10-17T05:37:09.630Z,17.13
2022-10-17T05:39:19.455Z,17.15
2022-10-17T05:41:23.880Z,17.14
2022-10-17T05:43:27.867Z,17.14
2022-10-17T05:45:31.078Z,17.17
2022-10-17T05:47:34.237Z,17.15
2022-10-17T05:49:47.353Z,16.84
2022-10-17T05:51:53.840Z,17.09
2022-10-17T05:53:57.231Z,17.13
2022-10-17T05:56:06.925Z,17.15
2022-10-17T05:58:17.784Z,17.16
2022-10-17T06:00:30.168Z,17.14
2022-10-17T06:02:34.931Z,17.15
2022-10-17T06:04:38.065Z,17.15
2022-10-17T06:06:41.259Z,17.09
2022-10-17T06:08:46.110Z,17.10
2022-10-17T06:10:53.158Z,17.07
2022-10-17T06:12:57.852Z,17.07
2022-10-17T06:15:02.270Z,17.12
2022-10-17T06:17:05.972Z,17.14
2022-10-17T06:19:09.138Z,17.18
2022-10-17T06:21:12.916Z,17.14
2022-10-17T06:23:20.875Z,17.13
2022-10-17T06:25:32.077Z,17.10
2022-10-17T06:27:35.410Z,17.16
2022-10-17T06:29:39.908Z,17.15
2022-10-17T06:31:44.118Z,17.23
2022-10-17T06:33:47.225Z,17.31
2022-10-17T06:35:53.171Z,17.28
2022-10-17T06:37:57.955Z,17.32
2022-10-17T06:40:02.564Z,17.33
2022-10-17T06:42:07.812Z,17.39
2022-10-17T06:44:41.208Z,17.35
2022-10-17T06:46:58.162Z,17.34
2022-10-17T06:49:02.637Z,17.36
2022-10-17T06:51:13.392Z,17.35
2022-10-17T06:53:25.008Z,17.41
2022-10-17T06:55:27.972Z,17.44
2022-10-17T06:58:03.443Z,17.41
2022-10-17T07:00:40.642Z,17.45
2022-10-17T07:02:44.107Z,17.42
2022-10-17T07:04:48.015Z,17.45
2022-10-17T07:06:51.333Z,17.47
2022-10-17T07:08:58.346Z,17.48
2022-10-17T07:11:09.382Z,17.54
2022-10-17T07:13:12.452Z,17.54
2022-10-17T07:15:15.685Z,17.61
2022-10-17T07:17:20.237Z,17.67
2022-10-17T07:19:23.653Z,17.72
2022-10-17T07:21:27.184Z,17.70
2022-10-17T07:23:30.659Z,17.76
2022-10-17T07:25:36.405Z,17.81
2022-10-17T07:27:44.430Z,17.85
2022-10-17T07:29:47.505Z,17.87
2022-10-17T07:31:55.636Z,17.88
2022-10-17T07:34:01.855Z,17.97
2022-10-17T07:36:06.204Z,17.97
2022-10-17T07:38:09.344Z,18.03
2022-10-17T07:40:12.551Z,18.07
2022-10-17T07:42:15.611Z,18.07
2022-10-17T07:44:18.774Z,18.10
2022-10-17T07:46:25.487Z,18.14
2022-10-17T07:48:28.917Z,18.16
2022-10-17T07:50:34.042Z,18.17
2022-10-17T07:52:37.089Z,18.25
2022-10-17T07:54:40.159Z,18.31
2022-10-17T07:56:43.280Z,18.35
2022-10-17T07:58:48.194Z,18.39
2022-10-17T08:00:51.571Z,18.41
2022-10-17T08:02:54.660Z,18.43
2022-10-17T08:04:57.699Z,18.54
2022-10-17T08:07:18.409Z,18.59
2022-10-17T08:09:22.956Z,18.61
2022-10-17T08:11:26.277Z,18.61
2022-10-17T08:13:29.274Z,18.67
2022-10-17T08:15:32.455Z,18.67
2022-10-17T08:17:36.082Z,18.80
2022-10-17T08:19:39.524Z,18.87
2022-10-17T08:21:44.835Z,18.93
2022-10-17T08:23:49.357Z,18.94
2022-10-17T08:25:52.654Z,19.05
2022-10-17T08:27:55.790Z,19.09
2022-10-17T08:29:58.859Z,19.15
2022-10-17T08:32:03.690Z,19.13
2022-10-17T08:34:07.665Z,19.18
2022-10-17T08:36:11.101Z,19.21
2022-10-17T08:38:15.293Z,19.21
2022-10-17T08:40:22.799Z,19.27
2022-10-17T08:42:34.674Z,19.31
2022-10-17T08:44:43.642Z,19.30
2022-10-17T08:46:49.118Z,19.25
2022-10-17T08:48:52.798Z,19.26
2022-10-17T08:50:58.388Z,19.21
2022-10-17T08:53:04.163Z,19.22
2022-10-17T08:55:14.504Z,19.16
2022-10-17T08:57:19.019Z,19.19
2022-10-17T08:59:27.195Z,19.21
2022-10-17T09:01:33.577Z,19.21
2022-10-17T09:03:43.735Z,19.30
2022-10-17T09:05:51.272Z,19.24
2022-10-17T09:07:58.123Z,19.30
2022-10-17T09:10:03.784Z,19.33
2022-10-17T09:12:15.266Z,19.37
2022-10-17T09:14:30.368Z,19.41
2022-10-17T09:16:40.303Z,19.42
2022-10-17T09:18:46.727Z,19.42
2022-10-17T09:20:52.274Z,19.41
2022-10-17T09:22:58.049Z,19.35
2022-10-17T09:25:03.820Z,19.38
2022-10-17T09:27:07.404Z,19.44
2022-10-17T09:29:16.261Z,19.46
2022-10-17T09:31:22.949Z,19.46
2022-10-17T09:33:42.173Z,19.53
2022-10-17T09:35:52.224Z,19.48
2022-10-17T09:37:55.880Z,19.49
2022-10-17T09:39:59.220Z,19.46
2022-10-17T09:42:03.117Z,19.46
2022-10-17T09:44:15.141Z,19.47
2022-10-17T09:46:21.580Z,19.51
2022-10-17T09:48:29.359Z,19.61
2022-10-17T09:50:33.369Z,19.59
2022-10-17T09:52:40.400Z,19.59
2022-10-17T09:54:45.726Z,19.64
2022-10-17T09:56:59.701Z,19.71
2022-10-17T09:59:02.854Z,19.78
2022-10-17T10:01:21.010Z,19.80
2022-10-17T10:03:28.315Z,19.80
2022-10-17T10:05:31.331Z,19.78
2022-10-17T10:07:35.244Z,19.81
2022-10-17T10:09:39.653Z,19.83
2022-10-17T10:11:47.592Z,19.80
2022-10-17T10:13:51.431Z,19.76
2022-10-17T10:15:54.738Z,19.82
2022-10-17T10:17:57.831Z,19.89
2022-10-17T10:20:02.613Z,19.95
2022-10-17T10:22:06.796Z,19.91
2022-10-17T10:24:14.019Z,19.92
2022-10-17T10:26:22.262Z,19.97
2022-10-17T10:28:29.703Z,20.03
2022-10-17T10:30:36.159Z,20.06
2022-10-17T10:32:46.444Z,20.06
2022-10-17T10:34:50.977Z,20.07
2022-10-17T10:37:00.480Z,20.05
2022-10-17T10:39:04.798Z,20.06
2022-10-17T10:41:09.062Z,20.03
2022-10-17T10:43:23.730Z,20.05
2022-10-17T10:45:47.956Z,20.06
2022-10-17T10:47:52.475Z,20.13
2022-10-17T10:50:07.708Z,20.19
2022-10-17T10:52:16.293Z,20.24
2022-10-17T10:54:23.129Z,20.29
2022-10-17T10:56:29.297Z,20.35
2022-10-17T10:58:41.770Z,20.34
2022-10-17T11:00:46.279Z,20.38
2022-10-17T11:02:54.811Z,20.32
2022-10-17T11:05:00.916Z,20.40
2022-10-17T11:07:05.624Z,20.43
2022-10-17T11:09:18.436Z,20.41
2022-10-17T11:11:27.453Z,20.42
2022-10-17T11:13:37.196Z,20.43
2022-10-17T11:15:43.415Z,20.42
2022-10-17T11:17:50.612Z,20.38
2022-10-17T11:19:59.713Z,20.41
2022-10-17T11:22:06.422Z,20.39
2022-10-17T11:24:15.335Z,20.39
2022-10-17T11:26:26.714Z,20.18
2022-10-17T11:28:30.674Z,20.42
2022-10-17T11:32:50.714Z,20.40
2022-10-17T11:34:57.137Z,20.48
2022-10-17T11:37:05.052Z,20.51
2022-10-17T11:39:12.146Z,20.56
2022-10-17T11:41:18.211Z,20.56
2022-10-17T11:43:29.091Z,20.59
2022-10-17T11:45:34.832Z,20.56
2022-10-17T11:47:40.402Z,20.54
2022-10-17T11:49:50.865Z,20.59
2022-10-17T11:52:00.404Z,20.58
2022-10-17T11:54:08.220Z,20.62
2022-10-17T11:56:12.538Z,20.60
2022-10-17T11:58:24.278Z,20.66
2022-10-17T12:00:39.266Z,20.64
2022-10-17T12:02:49.309Z,20.60
2022-10-17T12:04:56.215Z,20.65
2022-10-17T12:07:05.342Z,20.67
2022-10-17T12:09:12.268Z,20.67
2022-10-17T12:11:20.925Z,20.63
2022-10-17T12:13:44.566Z,20.60
2022-10-17T12:15:48.949Z,20.62
2022-10-17T12:17:55.973Z,20.62
2022-10-17T12:20:17.549Z,20.65
2022-10-17T12:22:26.021Z,20.64
2022-10-17T12:24:34.098Z,20.67
2022-10-17T12:26:37.157Z,20.71
2022-10-17T12:28:43.475Z,20.66
2022-10-17T12:30:55.202Z,20.65
2022-10-17T12:33:17.563Z,20.65
2022-10-17T12:35:21.963Z,20.72
2022-10-17T12:37:43.549Z,20.79
2022-10-17T12:39:46.590Z,20.83
2022-10-17T12:41:55.519Z,20.83
2022-10-17T12:43:58.740Z,20.89
2022-10-17T12:46:03.889Z,20.60
2022-10-17T12:48:10.083Z,20.85
2022-10-17T12:50:40.048Z,20.83
2022-10-17T12:53:04.458Z,20.85
2022-10-17T12:55:12.575Z,20.85
2022-10-17T12:57:20.050Z,20.87
2022-10-17T12:59:24.989Z,20.85
2022-10-17T13:01:30.640Z,20.79
2022-10-17T13:03:34.555Z,20.79
2022-10-17T13:05:39.324Z,20.80
2022-10-17T13:07:43.777Z,20.82
2022-10-17T13:09:47.190Z,20.83
2022-10-17T13:11:50.456Z,20.85
2022-10-17T13:13:54.781Z,20.82
2022-10-17T13:15:57.825Z,20.78
2022-10-17T13:18:02.633Z,20.83
2022-10-17T13:20:28.851Z,20.84
2022-10-17T13:22:34.489Z,20.91
2022-10-17T13:24:39.459Z,20.90
2022-10-17T13:26:46.273Z,20.87
2022-10-17T13:29:02.045Z,20.91
2022-10-17T13:31:05.306Z,20.91
2022-10-17T13:33:28.789Z,20.89
2022-10-17T13:35:59.340Z,20.93
2022-10-17T13:38:00.271Z,20.90
2022-10-17T13:40:17.537Z,20.97
2022-10-17T13:42:28.483Z,21.00
2022-10-17T13:44:34.661Z,20.96
2022-10-17T13:46:40.175Z,20.96
2022-10-17T13:48:44.662Z,20.99
2022-10-17T13:50:48.813Z,20.94
2022-10-17T13:53:06.576Z,20.99
2022-10-17T13:55:14.284Z,20.97
2022-10-17T13:57:21.656Z,20.97
2022-10-17T13:59:26.247Z,20.98
2022-10-17T14:01:30.113Z,20.98
2022-10-17T14:03:47.525Z,21.01
2022-10-17T14:06:12.294Z,21.00
2022-10-17T14:08:22.064Z,21.02
2022-10-17T14:10:27.655Z,21.10
2022-10-17T14:12:30.846Z,21.16
2022-10-17T14:14:46.432Z,21.19
2022-10-17T14:16:58.018Z,21.27
2022-10-17T14:19:01.193Z,21.20
2022-10-17T14:21:34.382Z,21.13
2022-10-17T14:23:33.809Z,21.18
2022-10-17T14:25:37.838Z,21.25
2022-10-17T14:27:55.351Z,21.26
2022-10-17T14:30:00.733Z,21.29
2022-10-17T14:32:06.072Z,21.30
2022-10-17T14:34:21.110Z,21.28
2022-10-17T14:36:35.389Z,21.29
2022-10-17T14:38:39.982Z,21.20
2022-10-17T14:40:50.112Z,21.22
2022-10-17T14:42:54.625Z,21.20
2022-10-17T14:45:04.647Z,21.19
2022-10-17T14:47:38.063Z,21.19
2022-10-17T14:49:36.245Z,21.13
2022-10-17T14:51:50.418Z,21.17
2022-10-17T14:54:05.766Z,21.09
2022-10-17T14:56:22.621Z,21.15
2022-10-17T14:58:27.647Z,21.13
2022-10-17T15:00:30.661Z,21.08
2022-10-17T15:02:33.825Z,21.11
2022-10-17T15:04:37.027Z,21.08
2022-10-17T15:06:40.576Z,21.03
2022-10-17T15:10:53.407Z,21.10
2022-10-17T15:12:58.851Z,21.10
2022-10-17T15:15:07.913Z,21.12
2022-10-17T15:17:15.190Z,21.09
2022-10-17T15:19:18.238Z,21.08
2022-10-17T15:21:41.891Z,21.11
2022-10-17T15:23:45.436Z,21.08
2022-10-17T15:25:48.496Z,21.09
2022-10-17T15:27:53.368Z,21.08
2022-10-17T15:29:56.407Z,21.07
2022-10-17T15:31:59.406Z,21.08
2022-10-17T15:34:02.405Z,21.09
2022-10-17T15:36:05.732Z,21.08
2022-10-17T15:38:09.709Z,21.07
2022-10-17T15:40:14.926Z,20.96
2022-10-17T15:42:17.984Z,20.95
2022-10-17T15:44:22.531Z,20.90
2022-10-17T15:46:26.972Z,20.87
2022-10-17T15:48:32.377Z,20.78
2022-10-17T15:50:35.526Z,20.71
2022-10-17T15:52:38.666Z,20.69
2022-10-17T15:54:41.860Z,20.65
2022-10-17T15:56:48.264Z,20.60
2022-10-17T15:58:51.836Z,20.61
2022-10-17T16:00:56.427Z,20.53
2022-10-17T16:03:00.435Z,20.48
2022-10-17T16:05:03.449Z,20.49
2022-10-17T16:07:07.217Z,20.46
2022-10-17T16:09:10.226Z,20.40
2022-10-17T16:11:15.610Z,20.43
2022-10-17T16:13:19.569Z,20.38
2022-10-17T16:15:23.524Z,20.32
2022-10-17T16:17:28.017Z,20.25
2022-10-17T16:19:31.223Z,20.17
2022-10-17T16:21:35.588Z,20.16
2022-10-17T16:23:38.625Z,19.96
2022-10-17T16:25:42.077Z,19.91
2022-10-17T16:27:45.233Z,19.86
2022-10-17T16:29:48.552Z,19.81
2022-10-17T16:31:51.625Z,19.76
2022-10-17T16:33:56.766Z,19.75
2022-10-17T16:35:59.814Z,19.66
2022-10-17T16:38:03.065Z,19.67
2022-10-17T16:40:06.695Z,19.64
2022-10-17T16:42:09.759Z,19.57
2022-10-17T16:44:16.357Z,19.45
2022-10-17T16:46:20.073Z,19.35
2022-10-17T16:48:28.711Z,19.36
2022-10-17T16:50:35.641Z,19.40
2022-10-17T16:52:41.186Z,19.37
2022-10-17T16:54:44.449Z,19.43
2022-10-17T16:56:47.662Z,19.28
2022-10-17T16:58:51.515Z,19.26
2022-10-17T17:00:54.722Z,19.17
2022-10-17T17:02:57.867Z,19.16
2022-10-17T17:05:00.913Z,19.11
2022-10-17T17:07:05.340Z,19.09
2022-10-17T17:09:09.265Z,19.00
2022-10-17T17:11:13.758Z,19.03
2022-10-17T17:13:16.926Z,18.98
2022-10-17T17:15:19.905Z,19.03
2022-10-17T17:17:44.579Z,18.87
2022-10-17T17:19:46.828Z,18.92
2022-10-17T17:21:51.107Z,18.97
2022-10-17T17:23:57.212Z,19.02
2022-10-17T17:26:00.797Z,19.02
2022-10-17T17:28:04.294Z,19.03
2022-10-17T17:30:07.866Z,19.05
2022-10-17T17:32:10.953Z,18.91
2022-10-17T17:34:17.170Z,18.92
2022-10-17T17:36:22.380Z,18.79
2022-10-17T17:38:25.799Z,18.81
2022-10-17T17:40:30.161Z,18.73
2022-10-17T17:42:33.176Z,18.81
2022-10-17T17:44:36.200Z,18.82
2022-10-17T17:46:39.413Z,18.87
2022-10-17T17:48:43.227Z,18.88
2022-10-17T17:50:46.475Z,18.91
2022-10-17T17:52:51.069Z,18.96
2022-10-17T17:54:54.163Z,18.99
2022-10-17T17:56:58.515Z,19.00
2022-10-17T17:59:03.115Z,18.98
2022-10-17T18:01:12.217Z,19.01
2022-10-17T18:03:17.387Z,19.04
2022-10-17T18:05:20.788Z,18.99
2022-10-17T18:07:23.839Z,19.03
2022-10-17T18:09:26.825Z,19.02
2022-10-17T18:11:29.976Z,18.97
2022-10-17T18:13:34.370Z,18.94
2022-10-17T18:15:38.421Z,18.91
2022-10-17T18:17:41.751Z,18.82
2022-10-17T18:19:44.791Z,18.82
2022-10-17T18:21:48.774Z,18.85
2022-10-17T18:23:52.714Z,18.81
2022-10-17T18:25:56.008Z,18.89
2022-10-17T18:27:59.029Z,18.91
2022-10-17T18:30:03.451Z,18.86
2022-10-17T18:32:06.736Z,18.87
2022-10-17T18:34:10.881Z,18.83
2022-10-17T18:36:15.134Z,18.64
2022-10-17T18:38:18.130Z,18.92
2022-10-17T18:40:21.145Z,18.90
2022-10-17T18:42:24.330Z,18.93
2022-10-17T18:44:27.506Z,18.94
2022-10-17T18:46:35.523Z,18.96
2022-10-17T18:48:39.850Z,18.95
2022-10-17T18:50:42.829Z,18.94
2022-10-17T18:52:46.050Z,18.94
2022-10-17T18:54:49.155Z,18.94
2022-10-17T18:56:53.489Z,18.92
2022-10-17T18:58:57.011Z,18.85
2022-10-17T19:01:02.794Z,18.80
2022-10-17T19:03:08.787Z,18.73
2022-10-17T19:05:14.337Z,18.73
2022-10-17T19:07:20.028Z,18.69
2022-10-17T19:09:23.077Z,18.69
2022-10-17T19:11:26.869Z,18.71
2022-10-17T19:13:29.905Z,18.73
2022-10-17T19:15:32.949Z,18.69
2022-10-17T19:17:35.990Z,18.70
2022-10-17T19:19:40.436Z,18.69
2022-10-17T19:21:43.521Z,18.68
2022-10-17T19:23:50.396Z,18.65
2022-10-17T19:25:54.960Z,18.58
2022-10-17T19:28:00.059Z,18.65
2022-10-17T19:30:03.100Z,18.66
2022-10-17T19:32:12.108Z,18.67
2022-10-17T19:34:19.096Z,18.70
2022-10-17T19:36:26.376Z,18.67
2022-10-17T19:38:32.330Z,18.65
2022-10-17T19:40:35.513Z,18.66
2022-10-17T19:42:38.648Z,18.66
2022-10-17T19:44:41.767Z,18.64
2022-10-17T19:46:46.928Z,18.58
2022-10-17T19:48:50.647Z,18.63
2022-10-17T19:50:54.104Z,18.50
2022-10-17T19:52:59.212Z,18.49
2022-10-17T19:55:02.466Z,18.44
2022-10-17T19:57:10.389Z,18.47
2022-10-17T19:59:14.627Z,18.38
2022-10-17T20:01:20.058Z,18.39
2022-10-17T20:03:24.272Z,18.37
2022-10-17T20:05:28.243Z,18.36
2022-10-17T20:07:31.363Z,18.39
2022-10-17T20:09:38.640Z,18.34
2022-10-17T20:11:41.765Z,18.32
2022-10-17T20:13:45.755Z,18.34
2022-10-17T20:15:55.171Z,18.32
2022-10-17T20:17:58.809Z,18.36
2022-10-17T20:20:07.674Z,18.36
2022-10-17T20:22:11.971Z,18.35
2022-10-17T20:24:15.941Z,18.38
2022-10-17T20:26:38.695Z,18.33
2022-10-17T20:28:42.410Z,18.30
2022-10-17T20:30:46.410Z,18.23
2022-10-17T20:32:54.760Z,18.13
2022-10-17T20:34:58.026Z,18.08
2022-10-17T20:37:01.846Z,17.91
2022-10-17T20:39:05.783Z,17.79
2022-10-17T20:41:09.876Z,17.73
2022-10-17T20:43:14.594Z,17.74
2022-10-17T20:45:17.845Z,17.80
2022-10-17T20:47:40.028Z,17.88
2022-10-17T20:49:44.319Z,17.91
2022-10-17T20:51:47.352Z,17.96
2022-10-17T20:53:50.397Z,18.00
2022-10-17T20:56:01.825Z,18.02
2022-10-17T20:58:05.097Z,18.05
2022-10-17T21:00:10.426Z,18.00
2022-10-17T21:02:14.826Z,17.96
2022-10-17T21:06:40.825Z,17.96
2022-10-17T21:08:44.232Z,17.69
2022-10-17T21:10:47.267Z,17.82
2022-10-17T21:12:54.226Z,17.40
2022-10-17T21:14:57.566Z,17.67
2022-10-17T21:17:05.018Z,17.58
2022-10-17T21:19:08.552Z,17.40
2022-10-17T21:21:12.789Z,17.35
2022-10-17T21:23:15.879Z,17.34
2022-10-17T21:25:18.932Z,17.41
2022-10-17T21:27:21.947Z,17.27
2022-10-17T21:29:24.998Z,17.24
2022-10-17T21:31:28.592Z,17.24
2022-10-17T21:33:33.135Z,17.16
2022-10-17T21:35:36.195Z,17.10
2022-10-17T21:37:39.368Z,17.00
2022-10-17T21:39:42.398Z,16.90
2022-10-17T21:41:45.653Z,16.91
2022-10-17T21:43:49.223Z,16.94
2022-10-17T21:45:52.245Z,17.00
2022-10-17T21:48:12.297Z,17.03
2022-10-17T21:50:17.418Z,17.13
2022-10-17T21:52:20.399Z,17.26
2022-10-17T21:54:24.061Z,17.31
2022-10-17T21:56:28.661Z,17.38
2022-10-17T21:58:31.801Z,17.45
2022-10-17T22:00:34.861Z,17.50
2022-10-17T22:02:37.869Z,17.48
2022-10-17T22:04:40.957Z,17.36
2022-10-17T22:06:46.690Z,17.21
2022-10-17T22:08:49.725Z,17.11
2022-10-17T22:10:52.734Z,17.00
2022-10-17T22:12:55.963Z,16.98
2022-10-17T22:14:59.018Z,17.05
2022-10-17T22:17:02.478Z,17.13
2022-10-17T22:19:06.760Z,17.21
2022-10-17T22:21:13.111Z,17.28
2022-10-17T22:23:17.725Z,17.31
2022-10-17T22:25:20.883Z,17.35
2022-10-17T22:27:23.899Z,17.36
2022-10-17T22:29:26.952Z,17.35
2022-10-17T22:31:29.961Z,17.34
2022-10-17T22:33:33.299Z,17.39
2022-10-17T22:35:36.311Z,17.43
2022-10-17T22:37:39.451Z,17.45
2022-10-17T22:39:43.821Z,17.32
2022-10-17T22:41:46.843Z,17.21
2022-10-17T22:43:49.891Z,17.09
2022-10-17T22:45:53.222Z,17.02
2022-10-17T22:47:56.824Z,16.96
2022-10-17T22:49:59.909Z,16.90
2022-10-17T22:52:02.938Z,16.87
2022-10-17T22:54:05.955Z,16.93
2022-10-17T22:56:14.773Z,16.91
2022-10-17T22:58:17.743Z,16.90
2022-10-17T23:00:20.853Z,16.84
2022-10-17T23:02:24.077Z,16.87
2022-10-17T23:04:27.324Z,16.95
2022-10-17T23:06:30.583Z,16.99
2022-10-17T23:08:33.633Z,17.03
2022-10-17T23:10:36.699Z,16.98
2022-10-17T23:12:41.228Z,16.91
2022-10-17T23:14:44.373Z,16.82
2022-10-17T23:16:47.355Z,16.77
2022-10-17T23:18:50.449Z,16.69
2022-10-17T23:20:53.628Z,16.66
2022-10-17T23:22:56.639Z,16.64
2022-10-17T23:24:59.711Z,16.61
2022-10-17T23:27:03.001Z,16.64
2022-10-17T23:29:07.462Z,16.65
2022-10-17T23:31:11.922Z,16.71
2022-10-17T23:33:15.296Z,16.72
2022-10-17T23:35:18.484Z,16.71
2022-10-17T23:37:21.574Z,16.72
2022-10-17T23:39:24.675Z,16.80
2022-10-17T23:41:27.753Z,16.81
2022-10-17T23:43:31.655Z,16.88
2022-10-17T23:45:37.141Z,16.96
2022-10-17T23:47:40.463Z,17.00
2022-10-17T23:49:43.490Z,17.04
2022-10-17T23:51:46.501Z,17.06
2022-10-17T23:53:49.540Z,17.13
2022-10-17T23:55:52.897Z,17.19
2022-10-17T23:57:55.929Z,17.20
2022-10-17T23:59:59.127Z,17.24
